Time;durP1;ratioP1;P1;durP2;ratioP2;P2;SDS_P1;SDS_P2;PMS_P1;PMS_P2;Temp;Humidity;BMP_temperature;BMP_pressure;BME280_temperature;BME280_humidity;BME280_pressure;Samples;Min_cycle;Max_cycle;Signal;HPM_P1;HPM_P2
2021/04/28 00:01:44;;;;;;;8.87;6.80;;;8.40;73.30;;;;;;5083062;28;20197;-90
2021/04/28 00:04:10;;;;;;;7.97;6.40;;;8.40;73.30;;;;;;5084644;28;20229;-90
2021/04/28 00:06:37;;;;;;;8.27;6.87;;;8.40;73.30;;;;;;5076759;28;20204;-90
2021/04/28 00:09:06;;;;;;;8.37;6.77;;;8.40;73.30;;;;;;5084821;28;20229;-90
2021/04/28 00:11:32;;;;;;;11.63;6.93;;;8.40;73.30;;;;;;5082509;28;20204;-91
2021/04/28 00:13:59;;;;;;;11.57;7.37;;;8.40;74.70;;;;;;5064458;28;20221;-91
2021/04/28 00:16:26;;;;;;;9.00;6.90;;;8.40;73.30;;;;;;5062482;28;20691;-91
2021/04/28 00:18:52;;;;;;;10.00;6.80;;;8.40;73.30;;;;;;5066048;28;20225;-92
2021/04/28 00:21:19;;;;;;;10.17;7.07;;;8.30;73.20;;;;;;5069021;28;20201;-88
2021/04/28 00:23:46;;;;;;;10.57;7.00;;;8.20;73.00;;;;;;5075675;28;20277;-88
2021/04/28 00:26:15;;;;;;;10.93;7.50;;;8.10;75.40;;;;;;5075475;28;20212;-90
2021/04/28 00:28:42;;;;;;;11.40;7.07;;;8.00;75.50;;;;;;5076633;28;20244;-90
2021/04/28 00:31:08;;;;;;;11.67;7.40;;;8.00;75.50;;;;;;5072788;28;20210;-88
2021/04/28 00:33:36;;;;;;;8.53;7.33;;;8.00;75.90;;;;;;5077957;28;20290;-93
2021/04/28 00:36:03;;;;;;;9.07;7.00;;;8.00;75.80;;;;;;5074787;28;20198;-87
2021/04/28 00:38:29;;;;;;;9.13;7.20;;;8.00;75.50;;;;;;5074415;28;20226;-90
2021/04/28 00:40:56;;;;;;;11.20;7.30;;;8.00;74.80;;;;;;5082067;28;20274;-88
2021/04/28 00:43:23;;;;;;;9.57;7.30;;;8.00;75.50;;;;;;5070327;28;20221;-88
2021/04/28 00:45:50;;;;;;;10.37;7.57;;;8.00;75.80;;;;;;5074821;28;20358;-89
2021/04/28 00:48:17;;;;;;;9.40;7.87;;;7.90;76.60;;;;;;5077933;28;20233;-89
2021/04/28 00:50:45;;;;;;;11.40;7.93;;;7.80;77.40;;;;;;5072730;28;20202;-90
2021/04/28 00:53:14;;;;;;;10.47;7.83;;;7.80;77.00;;;;;;5078736;28;20217;-90
2021/04/28 00:55:42;;;;;;;9.83;7.53;;;7.80;77.40;;;;;;5081989;28;20193;-88
2021/04/28 00:58:08;;;;;;;8.80;7.20;;;7.70;77.80;;;;;;5070125;28;20225;-90
2021/04/28 01:00:35;;;;;;;10.73;7.70;;;7.70;77.90;;;;;;5072797;28;20208;-89
2021/04/28 01:03:02;;;;;;;9.17;7.87;;;7.70;77.90;;;;;;5066766;28;20221;-88
2021/04/28 01:05:29;;;;;;;11.57;7.70;;;7.70;78.30;;;;;;5077559;28;20631;-88
2021/04/28 01:07:57;;;;;;;9.20;7.80;;;7.70;78.90;;;;;;5066189;28;20293;-88
2021/04/28 01:10:25;;;;;;;9.53;7.53;;;7.60;78.30;;;;;;5073026;28;20206;-88
2021/04/28 01:12:52;;;;;;;9.43;7.43;;;7.60;78.90;;;;;;5076905;28;20219;-88
2021/04/28 01:15:20;;;;;;;12.13;8.07;;;7.60;79.20;;;;;;5070640;28;20235;-89
2021/04/28 01:17:47;;;;;;;11.40;8.17;;;7.50;79.10;;;;;;5072118;28;20251;-89
2021/04/28 01:20:17;;;;;;;8.53;7.07;;;7.50;79.30;;;;;;5074731;28;20620;-88
2021/04/28 01:22:46;;;;;;;10.37;7.50;;;7.60;79.30;;;;;;5072266;28;20754;-90
2021/04/28 01:25:15;;;;;;;8.83;7.63;;;7.60;79.60;;;;;;5081389;28;20581;-87
2021/04/28 01:27:46;;;;;;;11.23;7.83;;;7.60;79.10;;;;;;5078520;28;20243;-88
2021/04/28 01:30:14;;;;;;;12.17;7.70;;;7.50;79.20;;;;;;5067554;28;20246;-87
2021/04/28 01:32:46;;;;;;;9.23;7.73;;;7.50;79.30;;;;;;5065138;28;20290;-87
2021/04/28 01:35:15;;;;;;;9.97;7.13;;;7.50;79.60;;;;;;5077308;28;20203;-88
2021/04/28 01:37:44;;;;;;;9.37;7.23;;;7.40;80.20;;;;;;5081509;28;20260;-87
2021/04/28 01:40:13;;;;;;;13.40;8.20;;;7.40;80.40;;;;;;5068080;28;20204;-88
2021/04/28 01:42:41;;;;;;;9.40;7.10;;;7.30;81.00;;;;;;5075358;28;20224;-88
2021/04/28 01:45:08;;;;;;;11.77;7.67;;;7.30;80.80;;;;;;5072359;28;20202;-87
2021/04/28 01:47:35;;;;;;;10.23;7.63;;;7.30;80.40;;;;;;5078656;28;20237;-92
2021/04/28 01:50:03;;;;;;;10.17;7.77;;;7.30;80.50;;;;;;5076313;28;20202;-87
2021/04/28 01:52:30;;;;;;;14.70;8.87;;;7.30;80.30;;;;;;5069772;28;20239;-87
2021/04/28 01:54:57;;;;;;;9.30;7.47;;;7.30;80.50;;;;;;5069588;28;20206;-88
2021/04/28 01:57:25;;;;;;;11.13;7.83;;;7.30;80.30;;;;;;5072917;28;20201;-87
2021/04/28 01:59:52;;;;;;;9.60;7.90;;;7.20;80.50;;;;;;5080182;28;20205;-87
2021/04/28 02:02:19;;;;;;;10.63;7.80;;;7.10;80.40;;;;;;5076826;28;20644;-89
2021/04/28 02:04:46;;;;;;;13.30;7.90;;;7.00;81.50;;;;;;5068940;28;20216;-90
2021/04/28 02:07:13;;;;;;;9.53;8.00;;;7.00;81.10;;;;;;5076343;28;20203;-88
2021/04/28 02:09:40;;;;;;;11.83;7.67;;;6.90;81.30;;;;;;5077814;28;20664;-88
2021/04/28 02:12:11;;;;;;;12.93;8.47;;;6.80;82.50;;;;;;5068127;28;20198;-88
2021/04/28 02:14:38;;;;;;;11.57;8.70;;;6.80;82.70;;;;;;5063982;28;20206;-89
2021/04/28 02:17:05;;;;;;;10.53;8.33;;;6.80;82.90;;;;;;5063100;28;20618;-90
2021/04/28 02:19:32;;;;;;;9.60;8.60;;;6.70;83.20;;;;;;5070538;28;20225;-88
2021/04/28 02:21:59;;;;;;;10.90;8.67;;;6.60;83.70;;;;;;5069833;28;20204;-88
2021/04/28 02:24:25;;;;;;;9.50;8.20;;;6.50;85.20;;;;;;5078589;28;20366;-88
2021/04/28 02:26:55;;;;;;;13.47;8.90;;;6.40;86.80;;;;;;5071927;28;20566;-88
2021/04/28 02:29:23;;;;;;;11.87;8.10;;;6.30;86.70;;;;;;5072797;28;20239;-88
2021/04/28 02:31:49;;;;;;;9.90;8.10;;;6.30;87.10;;;;;;5078937;28;20193;-88
2021/04/28 02:34:16;;;;;;;10.47;8.43;;;6.40;86.50;;;;;;5070363;28;20573;-90
2021/04/28 02:36:48;;;;;;;11.93;8.83;;;6.60;86.20;;;;;;5076070;28;20659;-87
2021/04/28 02:39:20;;;;;;;11.70;9.13;;;6.60;85.50;;;;;;5069714;28;20249;-88
2021/04/28 02:41:47;;;;;;;11.03;8.90;;;6.50;85.20;;;;;;5066740;28;20263;-87
2021/04/28 02:44:18;;;;;;;13.77;8.77;;;6.60;85.10;;;;;;5075181;28;20224;-88
2021/04/28 02:46:46;;;;;;;11.63;8.73;;;6.40;85.60;;;;;;5070898;28;20274;-88
2021/04/28 02:49:14;;;;;;;11.53;8.50;;;6.30;86.60;;;;;;5068301;28;20232;-89
2021/04/28 02:51:41;;;;;;;15.53;8.90;;;6.20;87.30;;;;;;5072109;28;20205;-87
2021/04/28 02:54:08;;;;;;;9.77;8.13;;;6.10;88.70;;;;;;5068907;28;20221;-88
2021/04/28 02:56:35;;;;;;;11.03;8.67;;;6.00;89.50;;;;;;5068741;28;20288;-88
2021/04/28 02:59:03;;;;;;;10.20;8.03;;;6.10;88.80;;;;;;5066022;28;20230;-88
2021/04/28 03:01:30;;;;;;;10.73;8.30;;;6.20;88.00;;;;;;5066238;28;20209;-87
2021/04/28 03:03:58;;;;;;;13.97;8.93;;;6.20;87.50;;;;;;5073385;28;20285;-88
2021/04/28 03:06:25;;;;;;;16.63;9.07;;;6.30;86.90;;;;;;5072521;28;20193;-88
2021/04/28 03:08:51;;;;;;;12.90;9.07;;;6.10;87.30;;;;;;5068830;28;20225;-88
2021/04/28 03:11:21;;;;;;;10.20;8.33;;;6.10;88.10;;;;;;5074469;28;20201;-89
2021/04/28 03:13:47;;;;;;;11.90;8.87;;;6.10;88.90;;;;;;5074492;28;20220;-91
2021/04/28 03:16:14;;;;;;;14.67;9.13;;;6.00;87.80;;;;;;5069245;28;20706;-88
2021/04/28 03:18:41;;;;;;;11.73;8.57;;;6.00;87.70;;;;;;5068194;28;20230;-88
2021/04/28 03:21:10;;;;;;;11.50;9.30;;;5.90;89.50;;;;;;5068324;28;20206;-88
2021/04/28 03:23:36;;;;;;;12.23;9.33;;;5.80;89.50;;;;;;5077908;28;20230;-89
2021/04/28 03:26:02;;;;;;;12.67;9.07;;;5.80;89.50;;;;;;5071007;28;20211;-90
2021/04/28 03:28:29;;;;;;;11.47;9.00;;;5.80;89.50;;;;;;5063948;28;20599;-88
2021/04/28 03:30:55;;;;;;;10.60;8.90;;;5.80;89.50;;;;;;5068921;28;20620;-88
2021/04/28 03:33:22;;;;;;;16.10;9.33;;;5.90;89.50;;;;;;5074451;28;20217;-89
2021/04/28 03:35:49;;;;;;;14.00;9.27;;;5.90;89.50;;;;;;5074837;28;20208;-85
2021/04/28 03:38:16;;;;;;;11.40;9.50;;;5.90;89.50;;;;;;5067466;28;20232;-87
2021/04/28 03:40:43;;;;;;;10.40;9.27;;;5.80;89.50;;;;;;5076691;28;20209;-87
2021/04/28 03:43:10;;;;;;;12.50;8.97;;;5.70;89.40;;;;;;5064758;28;20240;-90
2021/04/28 03:45:37;;;;;;;13.07;9.17;;;5.60;89.40;;;;;;5075867;28;20203;-91
2021/04/28 03:48:04;;;;;;;12.43;9.27;;;5.70;89.40;;;;;;5070069;28;20235;-85
2021/04/28 03:50:31;;;;;;;15.07;9.20;;;5.70;89.40;;;;;;5067584;28;20202;-91
2021/04/28 03:52:57;;;;;;;16.23;9.17;;;5.70;89.40;;;;;;5066546;28;20248;-87
2021/04/28 03:55:25;;;;;;;11.27;9.10;;;5.70;89.40;;;;;;5069438;28;20251;-87
2021/04/28 03:57:51;;;;;;;13.77;9.47;;;5.60;89.40;;;;;;5073461;28;20224;-88
2021/04/28 04:00:19;;;;;;;11.27;8.60;;;5.50;89.30;;;;;;5080386;28;20201;-88
2021/04/28 04:02:45;;;;;;;11.10;8.67;;;5.40;90.00;;;;;;5079339;28;20221;-89
2021/04/28 04:05:12;;;;;;;15.07;9.50;;;5.30;90.40;;;;;;5083473;28;20265;-86
2021/04/28 04:07:39;;;;;;;14.77;8.50;;;5.40;90.50;;;;;;5079821;28;20239;-89
2021/04/28 04:10:06;;;;;;;12.97;8.63;;;5.50;90.10;;;;;;5074879;28;20209;-86
2021/04/28 04:12:33;;;;;;;12.67;9.23;;;5.40;89.20;;;;;;5082368;28;20277;-86
2021/04/28 04:15:00;;;;;;;10.93;8.83;;;5.40;90.10;;;;;;5076489;28;20266;-87
2021/04/28 04:17:26;;;;;;;13.23;9.10;;;5.40;89.90;;;;;;5076443;28;20197;-86
2021/04/28 04:19:53;;;;;;;14.03;9.37;;;5.40;89.30;;;;;;5077258;28;20193;-86
2021/04/28 04:22:19;;;;;;;11.67;9.80;;;5.40;90.00;;;;;;5078700;28;20656;-85
2021/04/28 04:24:46;;;;;;;13.07;10.07;;;5.30;90.10;;;;;;5076455;28;20197;-86
2021/04/28 04:27:12;;;;;;;17.33;9.73;;;5.30;90.20;;;;;;5082684;28;20202;-87
2021/04/28 04:29:40;;;;;;;11.97;8.83;;;5.40;90.00;;;;;;5085809;28;20675;-86
2021/04/28 04:32:06;;;;;;;12.40;9.43;;;5.40;89.30;;;;;;5074652;28;20270;-86
2021/04/28 04:34:33;;;;;;;12.77;9.67;;;5.50;89.30;;;;;;5076778;28;20225;-87
2021/04/28 04:36:59;;;;;;;12.37;9.83;;;5.40;89.30;;;;;;5073912;28;20232;-89
2021/04/28 04:39:26;;;;;;;15.87;9.50;;;5.40;89.20;;;;;;5074570;28;20287;-88
2021/04/28 04:41:52;;;;;;;12.50;9.47;;;5.50;89.30;;;;;;5075349;28;20251;-85
2021/04/28 04:44:19;;;;;;;12.40;9.47;;;5.60;89.40;;;;;;5079203;28;20308;-87
2021/04/28 04:46:46;;;;;;;16.20;9.93;;;5.80;89.50;;;;;;5074522;28;20295;-90
2021/04/28 04:49:12;;;;;;;15.13;9.50;;;5.90;88.20;;;;;;5074973;28;20588;-88
2021/04/28 04:51:39;;;;;;;15.63;8.87;;;5.90;86.70;;;;;;5070187;28;20216;-88
2021/04/28 04:54:07;;;;;;;16.00;9.53;;;5.90;86.70;;;;;;5069810;28;20284;-89
2021/04/28 04:56:34;;;;;;;12.17;9.33;;;5.80;87.00;;;;;;5074801;28;20644;-88
2021/04/28 04:59:00;;;;;;;12.77;10.10;;;5.90;87.40;;;;;;5078913;28;20231;-89
2021/04/28 05:01:27;;;;;;;17.30;9.53;;;6.00;87.20;;;;;;5082152;28;20193;-89
2021/04/28 05:03:55;;;;;;;16.63;10.27;;;6.10;87.70;;;;;;5074931;28;20217;-88
2021/04/28 05:06:21;;;;;;;15.13;9.80;;;6.20;84.80;;;;;;5072121;28;20197;-87
2021/04/28 05:08:48;;;;;;;10.60;8.83;;;6.40;84.50;;;;;;5080395;28;20315;-88
2021/04/28 05:11:15;;;;;;;13.70;9.63;;;6.50;84.50;;;;;;5077312;28;20645;-90
2021/04/28 05:13:44;;;;;;;13.83;9.83;;;6.50;85.50;;;;;;5075847;28;20221;-89
2021/04/28 05:16:10;;;;;;;11.50;9.40;;;6.50;85.20;;;;;;5073625;28;20206;-90
2021/04/28 05:18:37;;;;;;;13.13;9.57;;;6.50;84.80;;;;;;5076551;28;20221;-91
2021/04/28 05:21:05;;;;;;;17.23;10.03;;;6.60;83.50;;;;;;5066060;28;20336;-90
2021/04/28 05:23:31;;;;;;;15.67;10.53;;;6.70;83.90;;;;;;5078031;28;20228;-89
2021/04/28 05:25:58;;;;;;;13.77;10.27;;;6.80;82.70;;;;;;5067223;28;20193;-89
2021/04/28 05:28:24;;;;;;;15.20;10.53;;;6.90;83.30;;;;;;5075263;28;20324;-89
2021/04/28 05:30:50;;;;;;;13.63;10.67;;;6.90;83.10;;;;;;5077179;28;20205;-92
2021/04/28 05:33:17;;;;;;;14.63;10.13;;;7.20;82.10;;;;;;5067753;28;20274;-90
2021/04/28 05:35:43;;;;;;;11.53;9.47;;;7.50;80.60;;;;;;5076356;28;20197;-88
2021/04/28 05:38:11;;;;;;;14.63;9.97;;;7.90;78.30;;;;;;5073328;28;20233;-89
2021/04/28 05:40:37;;;;;;;14.07;9.53;;;8.30;76.50;;;;;;5075587;28;20237;-89
2021/04/28 05:43:06;;;;;;;18.35;10.32;;;9.00;73.90;;;;;;5083136;28;20284;-91
2021/04/28 05:48:16;;;;;;;29.73;11.63;;;10.60;60.80;;;;;;5070981;28;20693;-91
2021/04/28 05:50:44;;;;;;;16.10;9.57;;;11.60;54.90;;;;;;5064700;28;20265;-93
2021/04/28 05:53:14;;;;;;;15.27;9.20;;;12.10;51.50;;;;;;5076968;28;20263;-93
2021/04/28 05:55:43;;;;;;;13.48;9.52;;;12.10;48.70;;;;;;5089165;28;20197;-92
2021/04/28 05:58:11;;;;;;;13.35;9.57;;;11.00;51.60;;;;;;5088794;28;20252;-91
2021/04/28 06:01:05;;;;;;;13.23;9.40;;;10.30;56.20;;;;;;5086931;28;20212;-92
2021/04/28 06:03:33;;;;;;;12.65;9.10;;;10.30;57.50;;;;;;5079534;28;20217;-89
2021/04/28 06:06:00;;;;;;;11.85;8.90;;;10.50;56.90;;;;;;5087948;28;20194;-93
2021/04/28 06:08:30;;;;;;;15.27;10.05;;;10.80;56.80;;;;;;5080494;28;20284;-90
2021/04/28 06:10:59;;;;;;;14.25;9.75;;;11.50;54.70;;;;;;5078651;28;20202;-89
2021/04/28 06:16:48;;;;;;;13.15;8.43;;;12.80;49.30;;;;;;5086103;28;20169;-85
2021/04/28 06:19:24;;;;;;;13.02;9.23;;;13.50;47.90;;;;;;5078491;28;20202;-85
2021/04/28 06:21:50;;;;;;;14.88;9.30;;;13.20;45.70;;;;;;5069104;28;20340;-84
2021/04/28 06:24:17;;;;;;;13.30;9.57;;;13.00;46.90;;;;;;5079418;28;20261;-86
2021/04/28 06:26:46;;;;;;;15.43;9.20;;;13.00;48.60;;;;;;5070282;28;20551;-88
2021/04/28 06:29:12;;;;;;;12.48;9.30;;;13.20;46.30;;;;;;5079567;28;20729;-88
2021/04/28 06:31:39;;;;;;;16.50;9.45;;;13.30;46.00;;;;;;5083634;28;20656;-84
2021/04/28 06:34:35;;;;;;;14.25;9.35;;;13.00;47.60;;;;;;5083007;28;20229;-86
2021/04/28 06:57:52;;;;;;;11.60;9.15;;;12.90;49.40;;;;;;5079394;28;20225;-89
2021/04/28 07:00:31;;;;;;;13.35;9.38;;;13.50;47.50;;;;;;5068655;28;20208;-89
2021/04/28 07:06:24;;;;;;;13.38;9.32;;;13.50;47.30;;;;;;5082919;28;20169;-88
2021/04/28 07:08:51;;;;;;;14.45;9.52;;;13.10;49.60;;;;;;5082365;28;20250;-90
2021/04/28 07:11:17;;;;;;;17.20;9.40;;;13.50;47.20;;;;;;5065691;28;20209;-91
2021/04/28 07:13:48;;;;;;;13.10;9.52;;;13.80;47.90;;;;;;5067445;28;20232;-93
2021/04/28 07:16:14;;;;;;;17.63;8.88;;;14.30;45.10;;;;;;5070371;28;20674;-91
2021/04/28 07:18:41;;;;;;;16.42;9.70;;;14.70;44.30;;;;;;5067433;28;20241;-92
2021/04/28 07:21:07;;;;;;;12.55;9.32;;;14.80;43.00;;;;;;5076668;28;20197;-90
2021/04/28 07:23:34;;;;;;;13.27;9.07;;;15.00;43.70;;;;;;5077440;28;20239;-89
2021/04/28 07:26:00;;;;;;;11.45;8.50;;;15.20;42.40;;;;;;5066341;28;20267;-90
2021/04/28 07:28:27;;;;;;;10.93;8.52;;;15.20;41.50;;;;;;5069181;28;20224;-88
2021/04/28 07:30:54;;;;;;;12.55;9.55;;;15.40;41.20;;;;;;5067610;28;20193;-88
2021/04/28 07:33:20;;;;;;;13.52;9.10;;;15.70;39.90;;;;;;5072913;28;20222;-87
2021/04/28 07:35:47;;;;;;;11.52;9.27;;;16.10;38.50;;;;;;5072596;28;20233;-87
2021/04/28 07:38:13;;;;;;;10.35;9.10;;;16.40;39.00;;;;;;5078480;28;20225;-87
2021/04/28 07:40:39;;;;;;;13.65;9.68;;;16.40;37.50;;;;;;5070109;28;20198;-88
2021/04/28 07:43:06;;;;;;;13.88;9.90;;;16.50;37.10;;;;;;5074381;28;20443;-88
2021/04/28 07:45:34;;;;;;;11.48;8.93;;;15.80;38.60;;;;;;5074413;28;20197;-87
2021/04/28 07:48:05;;;;;;;16.55;10.20;;;16.00;41.40;;;;;;5072613;28;20237;-86
2021/04/28 07:50:31;;;;;;;14.85;9.35;;;16.50;37.40;;;;;;5072519;28;20208;-88
2021/04/28 07:52:58;;;;;;;17.65;9.70;;;16.80;36.80;;;;;;5076745;28;20229;-87
2021/04/28 07:55:25;;;;;;;15.13;9.32;;;16.80;37.30;;;;;;5079760;28;20262;-88
2021/04/28 07:57:51;;;;;;;12.07;9.57;;;16.70;36.10;;;;;;5066800;28;20715;-85
2021/04/28 08:00:18;;;;;;;15.80;9.77;;;16.70;36.40;;;;;;5078158;28;20201;-85
2021/04/28 08:02:45;;;;;;;12.40;9.75;;;16.40;37.30;;;;;;5074262;28;20235;-87
2021/04/28 08:05:13;;;;;;;16.02;9.68;;;16.60;36.90;;;;;;5080369;28;20203;-86
2021/04/28 08:07:39;;;;;;;12.60;9.73;;;16.80;36.10;;;;;;5076545;28;20236;-86
2021/04/28 08:10:07;;;;;;;18.08;10.60;;;16.80;36.50;;;;;;5065337;28;20579;-86
2021/04/28 08:12:34;;;;;;;18.60;10.25;;;17.00;36.60;;;;;;5072868;28;20301;-87
2021/04/28 08:15:01;;;;;;;14.70;9.70;;;17.00;36.50;;;;;;5076685;28;20255;-85
2021/04/28 08:17:29;;;;;;;17.10;10.30;;;16.80;37.00;;;;;;5081036;28;20247;-86
2021/04/28 08:19:55;;;;;;;15.40;9.77;;;16.60;38.90;;;;;;5073081;28;20259;-86
2021/04/28 08:22:23;;;;;;;11.07;9.85;;;16.70;37.70;;;;;;5068503;28;20628;-86
2021/04/28 08:24:49;;;;;;;13.48;10.48;;;16.90;35.80;;;;;;5070546;28;20194;-86
2021/04/28 08:27:16;;;;;;;14.25;10.25;;;17.00;37.00;;;;;;5065838;28;20204;-89
2021/04/28 08:29:42;;;;;;;15.88;10.35;;;17.00;37.50;;;;;;5068801;28;20394;-86
2021/04/28 08:32:08;;;;;;;17.77;10.75;;;17.10;36.90;;;;;;5063311;28;20205;-87
2021/04/28 08:34:35;;;;;;;16.33;10.05;;;17.20;36.40;;;;;;5065282;28;20586;-89
2021/04/28 08:37:01;;;;;;;13.90;9.93;;;17.20;36.60;;;;;;5068640;28;20202;-86
2021/04/28 08:39:29;;;;;;;11.63;10.07;;;17.60;36.70;;;;;;5068855;28;20595;-85
2021/04/28 08:41:55;;;;;;;14.90;9.85;;;18.20;35.10;;;;;;5065341;28;20677;-89
2021/04/28 08:44:22;;;;;;;15.60;10.15;;;18.50;33.30;;;;;;5072264;28;20232;-87
2021/04/28 08:46:50;;;;;;;18.90;11.70;;;18.80;32.90;;;;;;5062524;28;20193;-87
2021/04/28 08:49:17;;;;;;;30.17;11.80;;;19.30;31.50;;;;;;5066354;28;20626;-84
2021/04/28 08:51:44;;;;;;;14.07;9.85;;;19.40;31.60;;;;;;5060105;28;20220;-85
2021/04/28 08:54:11;;;;;;;14.18;9.88;;;19.70;31.80;;;;;;5065519;28;20231;-85
2021/04/28 08:56:38;;;;;;;14.45;10.70;;;20.40;30.40;;;;;;5066527;28;20197;-84
2021/04/28 08:59:05;;;;;;;13.55;9.77;;;20.50;29.90;;;;;;5056924;28;20218;-82
2021/04/28 09:01:33;;;;;;;12.82;10.35;;;21.30;28.70;;;;;;5066284;28;20197;-83
2021/04/28 09:04:01;;;;;;;15.85;9.10;;;22.60;24.70;;;;;;5075442;28;20282;-83
2021/04/28 09:06:32;;;;;;;12.13;10.00;;;23.80;23.50;;;;;;5067536;28;20197;-83
2021/04/28 09:09:05;;;;;;;12.88;9.52;;;25.60;21.40;;;;;;5066624;28;20249;-83
2021/04/28 09:11:45;;;;;;;13.40;10.10;;;26.40;19.80;;;;;;5066366;28;20227;-85
2021/04/28 09:14:14;;;;;;;15.25;10.82;;;27.00;18.70;;;;;;5062007;28;20248;-83
2021/04/28 09:16:43;;;;;;;15.40;9.70;;;26.90;18.90;;;;;;5068665;28;20284;-83
2021/04/28 09:19:26;;;;;;;12.38;9.35;;;27.50;18.70;;;;;;5071643;28;20225;-84
2021/04/28 09:21:59;;;;;;;15.25;10.07;;;28.10;17.30;;;;;;5074275;28;20196;-84
2021/04/28 09:24:28;;;;;;;18.85;10.68;;;28.10;15.90;;;;;;5063111;28;20320;-84
2021/04/28 09:26:58;;;;;;;17.00;9.77;;;27.40;17.70;;;;;;5064333;28;20208;-83
2021/04/28 09:29:27;;;;;;;22.70;10.27;;;27.50;17.70;;;;;;5067922;28;20220;-83
2021/04/28 09:32:07;;;;;;;13.25;9.25;;;27.60;18.00;;;;;;5071452;28;20296;-84
2021/04/28 09:34:39;;;;;;;11.80;10.25;;;27.10;18.00;;;;;;5075186;28;20236;-83
2021/04/28 09:37:12;;;;;;;13.38;10.32;;;26.80;18.10;;;;;;5071175;28;20333;-84
2021/04/28 09:39:47;;;;;;;13.40;10.60;;;26.50;18.50;;;;;;5059243;28;20216;-88
2021/04/28 09:42:16;;;;;;;12.77;10.60;;;26.20;19.40;;;;;;5065576;28;20192;-85
2021/04/28 09:44:48;;;;;;;13.20;9.38;;;27.10;18.40;;;;;;5068307;28;20196;-84
2021/04/28 09:47:16;;;;;;;17.45;11.20;;;27.90;16.00;;;;;;5076602;28;20277;-86
2021/04/28 09:49:51;;;;;;;12.60;10.50;;;27.70;16.50;;;;;;5069538;28;20758;-83
2021/04/28 09:52:21;;;;;;;11.13;9.80;;;28.40;15.80;;;;;;5064832;28;20250;-83
2021/04/28 09:54:50;;;;;;;12.07;9.40;;;27.80;17.00;;;;;;5069664;28;20200;-85
2021/04/28 09:57:19;;;;;;;13.98;10.55;;;28.70;16.00;;;;;;5063995;28;20652;-82
2021/04/28 09:59:47;;;;;;;12.20;11.05;;;28.50;15.90;;;;;;5066348;28;20215;-83
2021/04/28 10:02:30;;;;;;;10.68;8.57;;;27.50;18.20;;;;;;5066677;28;20213;-84
2021/04/28 10:05:27;;;;;;;11.48;9.68;;;27.90;17.30;;;;;;5057973;28;20576;-82
2021/04/28 10:08:07;;;;;;;12.20;10.50;;;28.70;17.00;;;;;;5059529;28;20687;-82
2021/04/28 10:10:34;;;;;;;12.48;10.07;;;29.00;16.10;;;;;;5074409;28;20283;-83
2021/04/28 10:13:01;;;;;;;14.88;9.90;;;28.40;15.90;;;;;;5065121;28;20671;-83
2021/04/28 10:15:28;;;;;;;10.00;9.05;;;29.00;16.10;;;;;;5062484;28;20192;-82
2021/04/28 10:17:55;;;;;;;11.85;9.68;;;29.50;16.40;;;;;;5059170;28;20289;-86
2021/04/28 10:20:22;;;;;;;10.20;9.13;;;29.70;16.50;;;;;;5057064;28;20266;-81
2021/04/28 10:22:51;;;;;;;15.75;10.20;;;29.30;15.80;;;;;;5065626;28;20228;-84
2021/04/28 10:25:19;;;;;;;13.10;10.60;;;29.30;16.30;;;;;;5067969;28;20215;-83
2021/04/28 10:27:46;;;;;;;12.43;10.05;;;28.70;16.00;;;;;;5065039;28;20631;-81
2021/04/28 10:30:17;;;;;;;10.75;9.65;;;27.90;15.60;;;;;;5069003;28;20224;-81
2021/04/28 10:32:44;;;;;;;12.50;9.02;;;27.80;15.50;;;;;;5062192;28;20225;-81
2021/04/28 10:35:14;;;;;;;12.13;9.23;;;27.50;15.40;;;;;;5057442;28;20200;-81
2021/04/28 10:37:44;;;;;;;11.00;9.90;;;27.10;15.20;;;;;;5066754;28;20231;-82
2021/04/28 10:40:12;;;;;;;13.80;10.00;;;26.80;15.70;;;;;;5060796;28;20793;-82
2021/04/28 10:42:39;;;;;;;9.43;8.50;;;25.80;18.30;;;;;;5064448;28;20765;-81
2021/04/28 10:45:07;;;;;;;12.68;8.77;;;26.60;16.70;;;;;;5073630;28;20224;-84
2021/04/28 10:47:45;;;;;;;10.18;9.15;;;26.70;15.00;;;;;;5064433;28;20290;-83
2021/04/28 10:50:21;;;;;;;10.65;9.55;;;26.90;16.30;;;;;;5060183;28;20224;-84
2021/04/28 10:52:53;;;;;;;10.00;9.00;;;25.80;17.00;;;;;;5052125;28;20220;-82
2021/04/28 10:55:48;;;;;;;13.90;9.68;;;26.20;18.30;;;;;;5057515;28;20625;-83
2021/04/28 10:58:36;;;;;;;10.57;9.48;;;25.70;16.10;;;;;;5063885;28;20755;-81
2021/04/28 11:01:14;;;;;;;12.60;10.23;;;25.40;18.30;;;;;;5064788;28;20197;-82
2021/04/28 11:03:46;;;;;;;11.02;9.93;;;25.70;17.80;;;;;;5060866;28;20235;-82
2021/04/28 11:06:34;;;;;;;10.38;9.38;;;25.40;19.10;;;;;;5062418;28;20201;-81
2021/04/28 11:09:15;;;;;;;10.90;8.68;;;24.80;20.00;;;;;;5060286;28;20750;-82
2021/04/28 11:11:48;;;;;;;14.07;8.93;;;23.90;19.80;;;;;;5070563;28;20205;-80
2021/04/28 11:14:37;;;;;;;10.30;8.75;;;23.00;20.40;;;;;;5078934;28;20217;-83
2021/04/28 11:17:19;;;;;;;12.27;9.68;;;22.60;22.00;;;;;;5059524;28;20206;-83
2021/04/28 11:19:51;;;;;;;12.65;8.68;;;22.30;23.50;;;;;;5066758;28;20225;-84
2021/04/28 11:22:21;;;;;;;11.02;8.13;;;22.30;20.90;;;;;;5061653;28;20288;-84
2021/04/28 11:24:58;;;;;;;9.70;8.50;;;22.30;22.20;;;;;;5074703;28;20189;-83
2021/04/28 11:27:56;;;;;;;10.48;8.48;;;22.20;21.50;;;;;;5071894;28;20262;-83
2021/04/28 11:30:26;;;;;;;10.77;9.18;;;22.40;22.30;;;;;;5074702;28;20565;-82
2021/04/28 11:33:19;;;;;;;10.75;8.73;;;22.20;23.10;;;;;;5067871;28;20223;-82
2021/04/28 11:36:07;;;;;;;11.48;9.40;;;22.10;22.70;;;;;;5051424;28;20206;-83
2021/04/28 11:38:38;;;;;;;10.52;9.43;;;21.90;23.70;;;;;;5057827;28;20264;-83
2021/04/28 11:41:07;;;;;;;16.17;9.32;;;21.40;24.90;;;;;;5076468;28;20255;-84
2021/04/28 11:43:36;;;;;;;15.48;9.00;;;21.60;24.40;;;;;;5060235;28;20253;-83
2021/04/28 11:46:04;;;;;;;12.57;9.73;;;21.60;24.60;;;;;;5066400;28;20202;-85
2021/04/28 11:48:32;;;;;;;15.70;9.65;;;21.40;23.70;;;;;;5066688;28;20238;-84
2021/04/28 11:51:05;;;;;;;9.82;8.73;;;21.50;25.50;;;;;;5076283;28;20194;-84
2021/04/28 11:53:32;;;;;;;12.32;8.77;;;21.80;23.10;;;;;;5076771;28;20229;-84
2021/04/28 11:55:59;;;;;;;11.80;8.95;;;21.70;21.90;;;;;;5075108;28;20193;-85
2021/04/28 11:58:28;;;;;;;10.57;8.52;;;21.60;22.40;;;;;;5069496;28;20921;-85
2021/04/28 12:01:05;;;;;;;10.55;9.35;;;21.70;23.50;;;;;;5072056;28;20608;-89
2021/04/28 12:03:50;;;;;;;15.85;8.95;;;21.70;21.70;;;;;;5072543;28;20224;-84
2021/04/28 12:06:35;;;;;;;12.70;9.20;;;21.80;21.70;;;;;;5072852;28;20993;-84
2021/04/28 12:09:18;;;;;;;10.77;8.55;;;21.60;21.60;;;;;;5068239;28;20229;-86
2021/04/28 12:11:47;;;;;;;11.13;8.43;;;21.60;21.60;;;;;;5069139;28;20275;-84
2021/04/28 12:14:22;;;;;;;14.02;8.25;;;21.50;22.20;;;;;;5071277;28;21040;-87
2021/04/28 12:16:57;;;;;;;12.90;9.40;;;21.50;22.20;;;;;;5068560;28;20467;-85
2021/04/28 12:19:26;;;;;;;10.70;9.10;;;21.40;21.50;;;;;;5067584;28;20308;-85
2021/04/28 12:21:55;;;;;;;17.42;8.95;;;21.40;21.40;;;;;;5063570;28;20198;-84
2021/04/28 12:24:26;;;;;;;13.00;9.80;;;20.90;22.80;;;;;;5071195;28;20255;-85
2021/04/28 12:27:09;;;;;;;15.18;8.95;;;21.00;22.00;;;;;;5067930;28;20284;-86
2021/04/28 12:29:38;;;;;;;18.75;9.45;;;20.80;23.20;;;;;;5071710;28;20225;-86
2021/04/28 12:32:06;;;;;;;11.07;8.32;;;21.00;22.90;;;;;;5060453;28;20202;-84
2021/04/28 12:34:33;;;;;;;14.63;8.93;;;21.20;21.60;;;;;;5062585;28;20233;-83
2021/04/28 12:37:16;;;;;;;12.38;9.35;;;21.40;22.40;;;;;;5065042;28;20205;-84
2021/04/28 12:39:49;;;;;;;12.15;9.77;;;21.20;24.10;;;;;;5066085;28;20241;-86
2021/04/28 12:42:19;;;;;;;15.13;9.40;;;21.10;21.20;;;;;;5063661;28;20763;-84
2021/04/28 12:44:48;;;;;;;13.50;9.43;;;20.90;22.70;;;;;;5069630;28;20203;-84
2021/04/28 12:47:14;;;;;;;12.13;9.63;;;21.00;21.50;;;;;;5067124;28;20194;-87
2021/04/28 12:49:41;;;;;;;14.65;9.02;;;20.60;21.90;;;;;;5071505;28;20221;-87
2021/04/28 12:52:15;;;;;;;12.93;8.77;;;20.60;23.60;;;;;;5062946;28;20264;-84
2021/04/28 12:54:41;;;;;;;13.60;9.38;;;20.50;23.10;;;;;;5074210;28;20640;-84
2021/04/28 12:57:18;;;;;;;12.00;8.85;;;20.70;22.40;;;;;;5074975;28;20202;-83
2021/04/28 12:59:45;;;;;;;14.95;9.43;;;20.70;21.10;;;;;;5070733;28;20228;-83
2021/04/28 13:02:18;;;;;;;13.70;9.13;;;20.70;21.30;;;;;;5072224;28;20209;-83
2021/04/28 13:04:48;;;;;;;15.25;9.15;;;20.90;23.40;;;;;;5074067;28;20220;-84
2021/04/28 13:07:17;;;;;;;14.05;9.05;;;20.90;21.00;;;;;;5068176;28;20307;-83
2021/04/28 13:09:44;;;;;;;11.35;9.48;;;20.80;23.20;;;;;;5073888;28;20279;-84
2021/04/28 13:12:31;;;;;;;12.20;9.07;;;20.80;21.50;;;;;;5072551;28;20194;-84
2021/04/28 13:15:00;;;;;;;18.73;10.20;;;20.90;21.00;;;;;;5073240;28;20209;-85
2021/04/28 13:17:26;;;;;;;11.82;9.25;;;20.90;20.60;;;;;;5080089;28;20197;-84
2021/04/28 13:19:53;;;;;;;12.90;9.27;;;21.10;22.20;;;;;;5072313;28;20247;-86
2021/04/28 13:22:21;;;;;;;13.90;8.88;;;21.30;21.70;;;;;;5074328;28;20822;-85